This is the latest recevied weather packets stored in our database for station/object KR4KUV. If no packets are shown the sender has not sent any weather packets the latest 10 day(s).
| Time | Temp. | Humidity | Pressure | Rain* | Wind** | Luminosity | Snow |
|---|---|---|---|---|---|---|---|
| 1777759276 | 17.22° C | 42% | 1013.2 hPa | 0 mm | - | 244 W/m² | - |
| 1777758974 | 17.78° C | 41% | 1013.1 hPa | 0 mm | - | 261 W/m² | - |
| 1777758671 | 18.89° C | 39% | 1013.2 hPa | 0 mm | - | 278 W/m² | - |
| 1777757762 | 17.78° C | 42% | 1013.3 hPa | 0 mm | - | 127 W/m² | - |
| 1777757459 | 17.78° C | 41% | 1013 hPa | 0 mm | - | 206 W/m² | - |
| 1777757158 | 17.22° C | 42% | 1013.1 hPa | 0 mm | - | 371 W/m² | - |
| 1777756855 | 17.22° C | 42% | 1013.1 hPa | 0 mm | - | 243 W/m² | - |
| 1777756551 | 17.22° C | 42% | 1013.1 hPa | 0 mm | - | 243 W/m² | - |
| 1777756248 | 16.67° C | 43% | 1013.3 hPa | 0 mm | - | 175 W/m² | - |
| 1777755945 | 16.67° C | 42% | 1013.1 hPa | 0 mm | - | 323 W/m² | - |
| 1777755339 | 17.22° C | 42% | 1013.3 hPa | 0 mm | - | 452 W/m² | - |
| 1777755036 | 17.78° C | 42% | 1013.4 hPa | 0 mm | - | 461 W/m² | - |
| 1777754127 | 17.22° C | 42% | 1013.2 hPa | 0 mm | - | 510 W/m² | - |
| 1777753520 | 17.22° C | 41% | 1013.2 hPa | 0 mm | - | 563 W/m² | - |
| 1777753219 | 16.67° C | 42% | 1013.3 hPa | 0 mm | - | 624 W/m² | - |
| 1777752914 | 16.11° C | 44% | 1013.4 hPa | 0 mm | - | 257 W/m² | - |
| 1777752611 | 15.56° C | 44% | 1013.4 hPa | 0 mm | - | 228 W/m² | - |
| 1777751095 | 15.56° C | 44% | 1013.8 hPa | 0 mm | - | 175 W/m² | - |
| 1777750184 | 16.11° C | 44% | 1013.8 hPa | 0 mm | - | 306 W/m² | - |
| 1777749881 | 16.67° C | 45% | 1013.9 hPa | 0 mm | - | 282 W/m² | - |
| 1777749578 | 16.11° C | 46% | 1014 hPa | 0 mm | - | 381 W/m² | - |
| 1777749275 | 16.11° C | 46% | 1014.1 hPa | 0 mm | - | 295 W/m² | - |
| 1777748973 | 16.11° C | 45% | 1014.3 hPa | 0 mm | - | 274 W/m² | - |
| 1777748670 | 16.11° C | 45% | 1014.3 hPa | 0 mm | - | 347 W/m² | - |
| 1777748366 | 16.11° C | 48% | 1014.3 hPa | 0 mm | - | 275 W/m² | - |
* Rain latest hour (hover to see other rain measurements)
** Current wind speed in m/s (hover to see current wind gust speed)